sim
Sign-in with your pilot id or email,
or register
Callsign
Passwort

Schedule Details

Flight Number: DLH767
Departure: Mumbai Chhatrapati Shivaji International Airport (VABB) at 19:55
Arrival: Munich Airport (EDDM) at 04:50
Route: Lufthansa Passenger Schedule. Enter filed route here before submitting Pirep.

Weather Information
Getting current METAR information for VABB 152330Z 00000KT 2100 HZ NSC 24/20 Q1011 NOSIG
Getting current METAR information for EDDM 152320Z 12005KT CAVOK 05/04 Q1013 NOSIG

Schedule Frequency

Route Map